Time;durP1;ratioP1;P1;durP2;ratioP2;P2;SDS_P1;SDS_P2;PMS_P1;PMS_P2;Temp;Humidity;BMP_temperature;BMP_pressure;BME280_temperature;BME280_humidity;BME280_pressure;Samples;Min_cycle;Max_cycle;Signal;HPM_P1;HPM_P2
2021/12/07 00:00:32;;;;;;;;;;;;;;;2.95;84.05;100335.03;5286623;28;20351;-77
2021/12/07 00:03:03;;;;;;;;;;;;;;;2.94;84.56;100341.63;5282771;28;19936;-76
2021/12/07 00:05:35;;;;;;;;;;;;;;;2.92;84.64;100346.50;5265909;28;20003;-75
2021/12/07 00:08:06;;;;;;;;;;;;;;;2.91;84.85;100344.81;5266250;28;19912;-76
2021/12/07 00:10:38;;;;;;;;;;;;;;;2.94;84.71;100359.94;5266312;28;19917;-75
2021/12/07 00:13:10;;;;;;;;;;;;;;;2.86;84.80;100346.66;5290623;28;19924;-76
2021/12/07 00:15:41;;;;;;;;;;;;;;;2.81;85.26;100356.47;5286535;28;19920;-74
2021/12/07 00:18:12;;;;;;;;;;;;;;;2.79;85.84;100357.81;5286593;28;20323;-75
2021/12/07 00:20:44;;;;;;;;;;;;;;;2.78;85.04;100361.63;5286557;28;19971;-75
2021/12/07 00:23:16;;;;;;;;;;;;;;;2.78;85.59;100362.44;5286116;28;19916;-74
2021/12/07 00:25:47;;;;;;;;;;;;;;;2.79;86.13;100371.50;5285150;28;19974;-75
2021/12/07 00:28:21;;;;;;;;;;;;;;;2.81;85.91;100366.59;5278304;28;20367;-76
2021/12/07 00:30:52;;;;;;;;;;;;;;;2.89;85.96;100374.41;5291217;28;19952;-76
2021/12/07 00:35:57;;;;;;;;;;;;;;;2.85;87.37;100377.88;5283692;28;19948;-75
2021/12/07 00:38:29;;;;;;;;;;;;;;;2.88;86.95;100378.22;5286382;28;19959;-75
2021/12/07 00:41:01;;;;;;;;;;;;;;;2.88;87.16;100389.16;5286035;28;19925;-76
2021/12/07 00:43:33;;;;;;;;;;;;;;;2.87;87.59;100393.00;5285670;28;19920;-75
2021/12/07 00:46:07;;;;;;;;;;;;;;;2.92;88.14;100395.81;5289910;28;19927;-76
2021/12/07 00:48:38;;;;;;;;;;;;;;;2.97;88.24;100393.16;5285402;28;19916;-77
2021/12/07 00:51:10;;;;;;;;;;;;;;;3.02;88.45;100401.44;5286640;28;20435;-78
2021/12/07 00:53:41;;;;;;;;;;;;;;;3.03;89.04;100405.84;5285644;28;19927;-76
2021/12/07 00:56:12;;;;;;;;;;;;;;;3.04;89.45;100404.78;5285544;28;19963;-76
2021/12/07 00:58:43;;;;;;;;;;;;;;;3.05;89.97;100417.38;5286009;28;19916;-76
2021/12/07 01:01:19;;;;;;;;;;;;;;;3.10;89.74;100410.34;5286136;28;19917;-76
2021/12/07 01:03:51;;;;;;;;;;;;;;;3.15;90.28;100424.94;5275223;28;19970;-74
2021/12/07 01:06:31;;;;;;;;;;;;;;;3.22;89.79;100427.47;5286322;28;19917;-77
2021/12/07 01:24:40;;;;;;;;;;;;;;;3.39;90.95;100443.91;5285759;28;20006;-76
2021/12/07 01:26:06;;;;;;;;;;;;;;;3.57;90.75;100465.56;5285998;28;19916;-75
2021/12/07 01:28:42;;;;;;;;;;;;;;;3.54;91.02;100471.56;5284994;28;19913;-75
2021/12/07 01:31:23;;;;;;;;;;;;;;;3.55;91.61;100478.69;5285023;28;20387;-76
2021/12/07 01:50:39;;;;;;;;;;;;;;;3.75;91.56;100491.88;5285139;28;19917;-76
2021/12/07 01:57:50;;;;;;;;;;;;;;;3.74;91.67;100492.97;5284297;28;20333;-76
2021/12/07 02:01:48;;;;;;;;;;;;;;;3.79;92.30;100509.50;5284798;28;19917;-77
2021/12/07 02:04:20;;;;;;;;;;;;;;;3.81;92.07;100518.31;5284540;28;20380;-76
2021/12/07 02:06:51;;;;;;;;;;;;;;;3.82;91.96;100513.63;5284417;28;19916;-76
2021/12/07 02:09:22;;;;;;;;;;;;;;;3.84;91.87;100517.78;5284846;28;19963;-76
2021/12/07 02:11:59;;;;;;;;;;;;;;;3.87;91.92;100520.03;5292591;28;19970;-76
2021/12/07 02:14:30;;;;;;;;;;;;;;;3.90;91.73;100535.97;5283072;28;19924;-76
2021/12/07 02:17:06;;;;;;;;;;;;;;;3.93;91.84;100532.72;5284280;28;20358;-75
2021/12/07 02:19:37;;;;;;;;;;;;;;;3.90;91.67;100533.22;5283839;28;19944;-76
2021/12/07 02:22:10;;;;;;;;;;;;;;;3.88;91.93;100543.63;5284322;28;19947;-76
2021/12/07 02:24:41;;;;;;;;;;;;;;;3.88;91.87;100543.63;5283979;28;19920;-76
2021/12/07 02:27:13;;;;;;;;;;;;;;;3.88;91.64;100543.63;5283685;28;19928;-76
2021/12/07 02:29:44;;;;;;;;;;;;;;;3.89;91.32;100549.97;5284242;28;19939;-77
2021/12/07 02:32:15;;;;;;;;;;;;;;;3.91;91.14;100556.00;5284647;28;20034;-75
2021/12/07 02:34:55;;;;;;;;;;;;;;;3.93;91.73;100546.44;5283005;28;20337;-76
2021/12/07 02:37:29;;;;;;;;;;;;;;;3.95;91.43;100551.69;5283911;28;19920;-76
2021/12/07 02:40:00;;;;;;;;;;;;;;;3.95;91.59;100568.16;5284008;28;19917;-76
2021/12/07 02:42:31;;;;;;;;;;;;;;;3.97;91.57;100565.97;5273781;28;20254;-76
2021/12/07 02:45:04;;;;;;;;;;;;;;;3.96;90.94;100566.22;5283569;28;19921;-76
2021/12/07 02:47:36;;;;;;;;;;;;;;;3.98;91.27;100572.28;5278787;28;20311;-76
2021/12/07 02:50:09;;;;;;;;;;;;;;;3.98;91.43;100572.28;5283782;28;19923;-76
2021/12/07 02:52:40;;;;;;;;;;;;;;;3.97;91.03;100571.47;5284091;28;19916;-77
2021/12/07 02:55:12;;;;;;;;;;;;;;;3.99;90.78;100579.44;5282793;28;19920;-76
2021/12/07 02:57:44;;;;;;;;;;;;;;;3.99;90.93;100590.41;5283622;28;19923;-76
2021/12/07 03:00:19;;;;;;;;;;;;;;;3.98;90.67;100594.25;5283763;28;20391;-76
2021/12/07 03:02:57;;;;;;;;;;;;;;;3.93;90.80;100598.56;5283733;28;19971;-76
2021/12/07 03:05:42;;;;;;;;;;;;;;;3.94;90.66;100599.44;5282598;28;19920;-77
2021/12/07 03:27:49;;;;;;;;;;;;;;;3.88;90.51;100623.19;5283042;28;19924;-77
2021/12/07 03:30:21;;;;;;;;;;;;;;;3.89;90.42;100630.34;5282945;28;20011;-76
2021/12/07 03:32:52;;;;;;;;;;;;;;;3.87;90.81;100632.50;5283495;28;19921;-77
2021/12/07 03:35:24;;;;;;;;;;;;;;;3.86;90.34;100630.84;5283374;28;19925;-77
2021/12/07 03:37:55;;;;;;;;;;;;;;;3.87;90.91;100643.47;5282164;28;19920;-77
2021/12/07 03:40:26;;;;;;;;;;;;;;;3.90;90.37;100648.47;5283646;28;20474;-76
2021/12/07 03:42:58;;;;;;;;;;;;;;;3.87;90.45;100654.47;5283235;28;20375;-76
2021/12/07 03:45:32;;;;;;;;;;;;;;;3.85;90.55;100656.63;5280914;28;19924;-76
2021/12/07 03:48:04;;;;;;;;;;;;;;;3.85;90.21;100667.59;5278675;28;19917;-76
2021/12/07 03:50:36;;;;;;;;;;;;;;;3.85;90.38;100667.59;5282399;28;20291;-75
2021/12/07 03:53:08;;;;;;;;;;;;;;;3.85;90.69;100662.09;5282941;28;19931;-76
2021/12/07 03:55:40;;;;;;;;;;;;;;;3.83;90.38;100664.25;5283050;28;19924;-76
2021/12/07 03:58:11;;;;;;;;;;;;;;;3.81;90.61;100665.59;5282155;28;19921;-76
2021/12/07 04:00:44;;;;;;;;;;;;;;;3.80;90.46;100672.16;5283215;28;19956;-77
2021/12/07 04:03:16;;;;;;;;;;;;;;;3.76;90.40;100662.75;5282964;28;19920;-77
2021/12/07 04:05:49;;;;;;;;;;;;;;;3.77;90.51;100659.78;5281493;28;20268;-75
2021/12/07 04:08:25;;;;;;;;;;;;;;;3.77;90.45;100665.25;5282529;28;19931;-76
2021/12/07 04:10:56;;;;;;;;;;;;;;;3.79;90.69;100663.13;5291771;28;19916;-77
2021/12/07 04:13:28;;;;;;;;;;;;;;;3.84;90.27;100668.69;5282538;28;19916;-77
2021/12/07 04:15:59;;;;;;;;;;;;;;;3.82;90.12;100683.72;5282252;28;19916;-76
2021/12/07 04:18:30;;;;;;;;;;;;;;;3.79;90.19;100678.75;5286173;28;20334;-76
2021/12/07 04:21:02;;;;;;;;;;;;;;;3.78;89.94;100677.88;5286099;28;19925;-76
2021/12/07 04:23:34;;;;;;;;;;;;;;;3.78;90.21;100679.81;5286390;28;20418;-76
2021/12/07 04:26:08;;;;;;;;;;;;;;;3.77;89.85;100687.22;5286292;28;19927;-78
2021/12/07 04:28:40;;;;;;;;;;;;;;;3.75;90.09;100683.06;5286561;28;20018;-77
2021/12/07 04:31:12;;;;;;;;;;;;;;;3.77;89.86;100686.38;5285637;28;19916;-76
2021/12/07 04:33:43;;;;;;;;;;;;;;;3.75;89.91;100694.84;5284790;28;20290;-76
2021/12/07 04:36:15;;;;;;;;;;;;;;;3.75;89.93;100694.84;5286519;28;19984;-76
2021/12/07 04:38:46;;;;;;;;;;;;;;;3.73;90.32;100686.03;5286529;28;20011;-76
2021/12/07 04:41:17;;;;;;;;;;;;;;;3.71;90.25;100690.97;5286118;28;20003;-78
2021/12/07 04:43:51;;;;;;;;;;;;;;;3.69;90.07;100701.34;5286390;28;20020;-76
2021/12/07 04:46:39;;;;;;;;;;;;;;;3.71;90.47;100704.66;5284380;28;19948;-76
2021/12/07 04:57:47;;;;;;;;;;;;;;;3.79;90.50;100711.66;5285986;28;19916;-76
2021/12/07 05:00:20;;;;;;;;;;;;;;;3.80;90.34;100699.59;5286887;28;20260;-76
2021/12/07 05:02:57;;;;;;;;;;;;;;;3.80;90.64;100697.69;5284863;28;20365;-75
2021/12/07 05:05:33;;;;;;;;;;;;;;;3.81;90.04;100721.31;5285055;28;19927;-77
2021/12/07 05:08:08;;;;;;;;;;;;;;;3.77;90.43;100716.56;5285141;28;19912;-76
2021/12/07 05:11:22;;;;;;;;;;;;;;;3.74;90.42;100720.63;5285660;28;20382;-76
2021/12/07 05:14:10;;;;;;;;;;;;;;;3.72;90.55;100728.28;5285184;28;20505;-76
2021/12/07 05:16:51;;;;;;;;;;;;;;;3.71;89.92;100732.09;5285082;28;19944;-76
2021/12/07 05:34:38;;;;;;;;;;;;;;;3.48;89.80;100758.56;5284378;28;19917;-76
2021/12/07 05:39:10;;;;;;;;;;;;;;;3.29;90.43;100769.94;5285377;28;19924;-76
2021/12/07 05:41:42;;;;;;;;;;;;;;;3.25;90.56;100767.69;5286343;28;19920;-76
2021/12/07 05:44:13;;;;;;;;;;;;;;;3.19;90.71;100776.03;5284386;28;20007;-76
2021/12/07 05:46:44;;;;;;;;;;;;;;;3.17;90.88;100786.41;5285229;28;20391;-76
2021/12/07 05:49:16;;;;;;;;;;;;;;;3.16;91.39;100790.25;5285752;28;19962;-75
2021/12/07 05:51:47;;;;;;;;;;;;;;;3.11;91.11;100782.72;5276180;28;19964;-75
2021/12/07 05:54:18;;;;;;;;;;;;;;;3.14;91.17;100798.69;5284296;28;19939;-76
2021/12/07 05:56:49;;;;;;;;;;;;;;;3.14;91.09;100795.94;5285149;28;20116;-76
2021/12/07 05:59:21;;;;;;;;;;;;;;;3.18;90.74;100799.06;5287093;28;20003;-75
2021/12/07 06:01:52;;;;;;;;;;;;;;;3.19;91.03;100814.41;5286845;28;20063;-75
2021/12/07 06:04:23;;;;;;;;;;;;;;;3.19;90.62;100806.19;5284835;28;20062;-76
2021/12/07 06:06:54;;;;;;;;;;;;;;;3.19;90.71;100806.19;5285393;28;19920;-77
2021/12/07 06:09:26;;;;;;;;;;;;;;;3.17;90.48;100805.59;5293877;28;19973;-77
2021/12/07 06:11:57;;;;;;;;;;;;;;;3.17;90.39;100802.84;5283556;28;20360;-77
2021/12/07 06:14:33;;;;;;;;;;;;;;;3.20;90.60;100813.34;5286087;28;19916;-76
2021/12/07 06:17:04;;;;;;;;;;;;;;;3.19;90.29;100811.66;5285877;28;20021;-75
2021/12/07 06:19:35;;;;;;;;;;;;;;;3.21;90.28;100804.88;5285132;28;19962;-77
2021/12/07 06:22:08;;;;;;;;;;;;;;;3.24;89.86;100803.56;5285969;28;19944;-77
2021/12/07 06:24:39;;;;;;;;;;;;;;;3.28;89.98;100804.75;5285410;28;19977;-77
2021/12/07 06:27:10;;;;;;;;;;;;;;;3.25;90.00;100806.06;5285588;28;20354;-77
2021/12/07 06:29:41;;;;;;;;;;;;;;;3.25;89.63;100817.03;5287109;28;20284;-77
2021/12/07 06:32:13;;;;;;;;;;;;;;;3.24;89.86;100825.47;5284564;28;19921;-76
2021/12/07 06:34:44;;;;;;;;;;;;;;;3.16;89.85;100815.72;5285295;28;20004;-76
2021/12/07 06:37:15;;;;;;;;;;;;;;;3.08;90.11;100826.25;5269402;28;19921;-75
2021/12/07 06:39:46;;;;;;;;;;;;;;;3.07;90.43;100821.81;5266211;28;20024;-77
2021/12/07 06:42:17;;;;;;;;;;;;;;;3.02;90.13;100823.38;5265972;28;19917;-76
2021/12/07 06:44:49;;;;;;;;;;;;;;;3.00;90.67;100820.03;5262710;28;19924;-77
2021/12/07 06:47:20;;;;;;;;;;;;;;;2.97;90.79;100822.44;5261326;28;20399;-75
2021/12/07 06:49:51;;;;;;;;;;;;;;;2.92;90.91;100820.41;5262848;28;19924;-77
2021/12/07 06:52:22;;;;;;;;;;;;;;;2.89;91.43;100820.03;5262855;28;19975;-75
2021/12/07 06:54:53;;;;;;;;;;;;;;;2.88;91.22;100821.13;5262260;28;19920;-76
2021/12/07 06:57:25;;;;;;;;;;;;;;;2.83;91.15;100816.38;5263262;28;19955;-77
2021/12/07 06:59:57;;;;;;;;;;;;;;;2.77;91.34;100818.16;5271993;28;19920;-77
2021/12/07 07:02:28;;;;;;;;;;;;;;;2.74;91.54;100820.56;5263420;28;19948;-78
2021/12/07 07:04:59;;;;;;;;;;;;;;;2.72;92.08;100830.91;5262758;28;19928;-76
2021/12/07 07:07:33;;;;;;;;;;;;;;;2.71;92.33;100831.97;5263793;28;19943;-77
2021/12/07 07:10:05;;;;;;;;;;;;;;;2.72;92.28;100839.13;5263537;28;19924;-77
2021/12/07 07:12:36;;;;;;;;;;;;;;;2.74;92.40;100834.25;5263412;28;20008;-76
2021/12/07 07:15:08;;;;;;;;;;;;;;;2.78;92.13;100832.69;5261165;28;20059;-77
2021/12/07 07:17:39;;;;;;;;;;;;;;;2.75;91.68;100834.00;5263499;28;19923;-77
2021/12/07 07:20:12;;;;;;;;;;;;;;;2.75;92.08;100831.25;5260291;28;20023;-77
2021/12/07 07:22:43;;;;;;;;;;;;;;;2.77;91.57;100836.50;5268025;28;19926;-76
2021/12/07 07:25:14;;;;;;;;;;;;;;;2.81;91.28;100832.19;5267030;28;19921;-76
2021/12/07 07:27:46;;;;;;;;;;;;;;;2.82;91.49;100842.09;5276851;28;19916;-76
2021/12/07 07:30:18;;;;;;;;;;;;;;;2.85;91.63;100849.84;5275300;28;19916;-76
2021/12/07 07:32:50;;;;;;;;;;;;;;;2.85;91.02;100860.78;5262776;28;20425;-76
2021/12/07 07:35:21;;;;;;;;;;;;;;;2.83;90.92;100854.72;5253106;28;20364;-76
2021/12/07 07:37:53;;;;;;;;;;;;;;;2.80;91.06;100855.19;5261401;28;19921;-75
2021/12/07 07:40:24;;;;;;;;;;;;;;;2.81;91.28;100846.75;5262716;28;19970;-78
2021/12/07 07:42:56;;;;;;;;;;;;;;;2.83;91.48;100841.84;5261846;28;19917;-77
2021/12/07 07:45:27;;;;;;;;;;;;;;;2.88;90.91;100845.78;5262967;28;20339;-76
2021/12/07 07:47:58;;;;;;;;;;;;;;;2.90;91.33;100847.22;5261766;28;20016;-77
2021/12/07 07:50:30;;;;;;;;;;;;;;;2.95;90.75;100841.03;5267542;28;20023;-76
2021/12/07 07:53:01;;;;;;;;;;;;;;;3.01;90.68;100840.06;5267951;28;19924;-76
2021/12/07 07:55:35;;;;;;;;;;;;;;;3.04;90.60;100842.31;5266264;28;19920;-76
2021/12/07 07:58:06;;;;;;;;;;;;;;;3.10;90.51;100835.06;5265641;28;19913;-75
2021/12/07 08:00:39;;;;;;;;;;;;;;;3.15;90.39;100826.94;5266643;28;19963;-76
2021/12/07 08:03:10;;;;;;;;;;;;;;;3.19;90.10;100828.13;5266517;28;20013;-76
2021/12/07 08:05:42;;;;;;;;;;;;;;;3.23;89.78;100840.28;5265095;28;19928;-76
2021/12/07 08:08:13;;;;;;;;;;;;;;;3.28;89.94;100836.81;5271031;28;19917;-76
2021/12/07 08:10:44;;;;;;;;;;;;;;;3.36;90.06;100844.66;5265729;28;19920;-74
2021/12/07 08:13:16;;;;;;;;;;;;;;;3.46;90.42;100845.69;5264000;28;19929;-71
2021/12/07 08:15:49;;;;;;;;;;;;;;;3.55;90.13;100848.06;5265138;28;19921;-71
2021/12/07 08:18:20;;;;;;;;;;;;;;;3.60;89.28;100850.91;5263714;28;19982;-72
2021/12/07 08:20:55;;;;;;;;;;;;;;;3.63;89.27;100858.63;5261302;28;19928;-75
2021/12/07 08:23:26;;;;;;;;;;;;;;;3.67;89.28;100870.81;5265821;28;19920;-76
2021/12/07 08:25:58;;;;;;;;;;;;;;;3.66;88.42;100872.72;5273381;28;19929;-76
2021/12/07 08:28:29;;;;;;;;;;;;;;;3.63;87.85;100877.84;5265991;28;19960;-75
2021/12/07 08:31:01;;;;;;;;;;;;;;;3.59;88.47;100874.75;5265918;28;19921;-75
2021/12/07 08:33:32;;;;;;;;;;;;;;;3.57;87.97;100876.06;5265589;28;20003;-75
2021/12/07 08:36:03;;;;;;;;;;;;;;;3.54;88.06;100879.31;5270445;28;19920;-75
2021/12/07 08:38:35;;;;;;;;;;;;;;;3.51;87.93;100874.31;5285084;28;19921;-74
2021/12/07 08:41:06;;;;;;;;;;;;;;;3.52;88.11;100876.78;5286045;28;19927;-73
2021/12/07 08:43:39;;;;;;;;;;;;;;;3.49;87.58;100882.78;5296016;28;19923;-74
2021/12/07 08:46:11;;;;;;;;;;;;;;;3.51;88.15;100890.78;5298906;28;19963;-73
2021/12/07 08:48:42;;;;;;;;;;;;;;;3.44;87.79;100878.00;5283434;28;19920;-74
2021/12/07 08:51:15;;;;;;;;;;;;;;;3.46;87.98;100864.06;5284556;28;19917;-74
2021/12/07 08:54:03;;;;;;;;;;;;;;;3.47;88.33;100857.50;5284960;28;19922;-74
2021/12/07 08:59:42;;;;;;;;;;;;;;;3.47;88.22;100852.84;5286594;28;19920;-74
2021/12/07 09:02:18;;;;;;;;;;;;;;;3.54;87.89;100851.88;5264501;28;19917;-75
2021/12/07 09:04:50;;;;;;;;;;;;;;;3.54;87.16;100843.66;5273302;28;19920;-76
2021/12/07 09:07:22;;;;;;;;;;;;;;;3.59;88.02;100846.50;5284673;28;19917;-76
2021/12/07 09:09:54;;;;;;;;;;;;;;;3.67;87.92;100835.16;5284394;28;20023;-77
2021/12/07 09:12:25;;;;;;;;;;;;;;;3.72;89.44;100832.50;5286191;28;19925;-73
2021/12/07 09:14:56;;;;;;;;;;;;;;;3.75;87.21;100839.41;5282905;28;19924;-76
2021/12/07 09:17:28;;;;;;;;;;;;;;;3.72;87.59;100838.00;5284156;28;19921;-77
2021/12/07 09:19:59;;;;;;;;;;;;;;;3.77;88.12;100840.81;5267537;28;19921;-78
2021/12/07 09:22:30;;;;;;;;;;;;;;;3.75;87.23;100842.16;5284805;28;20338;-78
2021/12/07 09:25:01;;;;;;;;;;;;;;;3.73;87.30;100849.78;5283551;28;19918;-77
2021/12/07 09:27:33;;;;;;;;;;;;;;;3.70;87.42;100843.69;5274895;28;19981;-75
2021/12/07 09:30:06;;;;;;;;;;;;;;;3.74;87.80;100841.31;5270665;28;19970;-76
2021/12/07 09:32:39;;;;;;;;;;;;;;;3.81;87.51;100846.66;5289438;28;19926;-75
2021/12/07 09:35:10;;;;;;;;;;;;;;;3.82;86.91;100838.19;5286280;28;19921;-75
2021/12/07 09:37:42;;;;;;;;;;;;;;;3.86;87.51;100841.25;5284747;28;19921;-76
2021/12/07 09:40:16;;;;;;;;;;;;;;;3.90;87.28;100839.69;5285465;28;20292;-75
2021/12/07 09:42:47;;;;;;;;;;;;;;;3.97;87.37;100845.06;5284408;28;19984;-75
2021/12/07 09:45:18;;;;;;;;;;;;;;;4.03;87.26;100838.56;5285390;28;20079;-75
2021/12/07 09:47:50;;;;;;;;;;;;;;;4.08;87.06;100841.41;5284038;28;19920;-75
2021/12/07 09:50:21;;;;;;;;;;;;;;;4.05;86.64;100833.66;5284689;28;19920;-75
2021/12/07 09:52:52;;;;;;;;;;;;;;;4.10;86.77;100844.75;5284627;28;20290;-75
2021/12/07 09:55:25;;;;;;;;;;;;;;;4.13;86.67;100838.75;5284233;28;19916;-74
2021/12/07 09:57:57;;;;;;;;;;;;;;;4.16;86.36;100842.91;5284017;28;19978;-76
2021/12/07 10:00:28;;;;;;;;;;;;;;;4.18;86.29;100836.09;5285433;28;19963;-80
2021/12/07 10:03:00;;;;;;;;;;;;;;;4.20;86.10;100833.13;5284829;28;19921;-79
2021/12/07 10:05:34;;;;;;;;;;;;;;;4.26;86.25;100827.44;5283413;28;19931;-80
2021/12/07 10:08:06;;;;;;;;;;;;;;;4.28;86.61;100836.28;5275199;28;19967;-76
2021/12/07 10:10:41;;;;;;;;;;;;;;;4.29;86.45;100835.19;5283377;28;19920;-76
2021/12/07 10:13:13;;;;;;;;;;;;;;;4.33;86.89;100830.88;5283670;28;20011;-74
2021/12/07 10:15:44;;;;;;;;;;;;;;;4.40;86.68;100817.00;5281605;28;19920;-76
2021/12/07 10:18:20;;;;;;;;;;;;;;;4.48;86.43;100815.75;5281096;28;20340;-72
2021/12/07 10:20:53;;;;;;;;;;;;;;;4.54;85.85;100809.25;5281509;28;19948;-70
2021/12/07 10:23:36;;;;;;;;;;;;;;;4.58;85.82;100810.41;5286485;28;19973;-72
2021/12/07 10:26:09;;;;;;;;;;;;;;;4.61;85.82;100818.16;5283409;28;19920;-71
2021/12/07 10:28:48;;;;;;;;;;;;;;;4.63;85.35;100809.63;5281866;28;19975;-76
2021/12/07 10:31:39;;;;;;;;;;;;;;;4.64;85.31;100812.16;5278701;28;19934;-75
2021/12/07 10:34:14;;;;;;;;;;;;;;;4.69;85.49;100805.91;5282571;28;19920;-75
2021/12/07 10:37:12;;;;;;;;;;;;;;;4.72;85.28;100800.72;5282336;28;19921;-75
2021/12/07 10:39:44;;;;;;;;;;;;;;;4.75;85.41;100794.72;5278484;28;19927;-75
2021/12/07 10:42:18;;;;;;;;;;;;;;;4.78;85.67;100788.75;5282629;28;20760;-74
2021/12/07 10:44:49;;;;;;;;;;;;;;;4.81;85.30;100787.41;5282514;28;19923;-73
2021/12/07 10:47:22;;;;;;;;;;;;;;;4.86;85.15;100775.63;5282087;28;20368;-75
2021/12/07 10:49:54;;;;;;;;;;;;;;;4.90;85.71;100772.13;5274087;28;19987;-73
2021/12/07 10:52:29;;;;;;;;;;;;;;;4.90;84.62;100765.81;5281855;28;19927;-74
2021/12/07 10:55:08;;;;;;;;;;;;;;;4.94;85.65;100770.56;5282657;28;21650;-75
2021/12/07 10:57:42;;;;;;;;;;;;;;;4.99;85.49;100758.81;5284258;28;19917;-79
2021/12/07 11:00:15;;;;;;;;;;;;;;;5.02;84.89;100750.03;5283252;28;19917;-78
2021/12/07 11:02:49;;;;;;;;;;;;;;;5.04;84.55;100750.63;5283585;28;19920;-79
2021/12/07 11:05:22;;;;;;;;;;;;;;;5.08;84.33;100745.44;5283609;28;19921;-76
2021/12/07 11:07:54;;;;;;;;;;;;;;;5.09;84.65;100725.09;5282332;28;19987;-74
2021/12/07 11:10:30;;;;;;;;;;;;;;;5.13;84.68;100727.06;5282467;28;19925;-74
2021/12/07 11:13:14;;;;;;;;;;;;;;;5.17;84.27;100717.25;5282691;28;19924;-74
2021/12/07 11:15:50;;;;;;;;;;;;;;;5.18;84.08;100716.13;5281542;28;19943;-75
2021/12/07 11:18:24;;;;;;;;;;;;;;;5.18;83.26;100710.63;5282681;28;19928;-75
2021/12/07 11:20:57;;;;;;;;;;;;;;;5.20;83.91;100716.72;5281258;28;19928;-75
2021/12/07 11:23:31;;;;;;;;;;;;;;;5.26;83.66;100708.53;5283128;28;19916;-76
2021/12/07 11:31:51;;;;;;;;;;;;;;;5.41;82.39;100703.19;5283652;28;19920;-77
2021/12/07 11:34:30;;;;;;;;;;;;;;;5.44;81.96;100699.91;5282553;28;19921;-77
2021/12/07 11:37:03;;;;;;;;;;;;;;;5.43;81.58;100696.34;5281754;28;20295;-76
2021/12/07 11:39:36;;;;;;;;;;;;;;;5.49;81.63;100696.41;5283401;28;20482;-77
2021/12/07 11:42:09;;;;;;;;;;;;;;;5.51;81.65;100689.56;5271262;28;19924;-75
2021/12/07 11:44:49;;;;;;;;;;;;;;;5.59;82.20;100704.75;5282693;28;19969;-73
2021/12/07 11:47:39;;;;;;;;;;;;;;;5.65;82.20;100698.22;5281185;28;19924;-73
2021/12/07 11:50:13;;;;;;;;;;;;;;;5.68;81.04;100683.13;5281784;28;19925;-73
2021/12/07 11:52:46;;;;;;;;;;;;;;;5.68;80.46;100680.38;5281875;28;20353;-73
2021/12/07 11:55:18;;;;;;;;;;;;;;;5.71;81.34;100683.41;5282778;28;19996;-74
2021/12/07 11:57:49;;;;;;;;;;;;;;;5.71;81.24;100675.16;5280617;28;20004;-73
2021/12/07 12:00:23;;;;;;;;;;;;;;;5.80;82.62;100672.75;5281394;28;20406;-71
2021/12/07 12:02:54;;;;;;;;;;;;;;;5.87;81.66;100660.44;5282523;28;19974;-75
2021/12/07 12:05:25;;;;;;;;;;;;;;;5.89;81.03;100662.94;5268749;28;19924;-75
2021/12/07 12:07:58;;;;;;;;;;;;;;;5.94;82.88;100665.75;5286282;28;20419;-75
2021/12/07 12:10:30;;;;;;;;;;;;;;;6.05;80.78;100650.13;5282451;28;19923;-78
2021/12/07 12:13:10;;;;;;;;;;;;;;;6.07;80.21;100648.78;5282664;28;20264;-74
2021/12/07 12:16:00;;;;;;;;;;;;;;;6.03;78.83;100655.94;5282805;28;19924;-73
2021/12/07 12:18:36;;;;;;;;;;;;;;;6.00;78.29;100647.34;5281914;28;20466;-75
2021/12/07 12:21:19;;;;;;;;;;;;;;;6.03;79.86;100636.66;5282563;28;19970;-78
2021/12/07 12:23:50;;;;;;;;;;;;;;;6.05;78.98;100631.69;5282832;28;19916;-78
2021/12/07 12:26:23;;;;;;;;;;;;;;;6.07;79.48;100632.25;5281582;28;19921;-77
2021/12/07 12:28:55;;;;;;;;;;;;;;;6.07;78.89;100621.25;5283079;28;19916;-76
2021/12/07 12:31:44;;;;;;;;;;;;;;;6.10;78.41;100617.13;5281329;28;20330;-77
2021/12/07 12:34:18;;;;;;;;;;;;;;;6.14;78.84;100609.19;5280892;28;20440;-74
2021/12/07 12:37:00;;;;;;;;;;;;;;;6.14;77.37;100603.69;5267232;28;19920;-72
2021/12/07 12:39:44;;;;;;;;;;;;;;;6.12;77.36;100601.19;5285776;28;19926;-75
2021/12/07 12:42:16;;;;;;;;;;;;;;;6.14;77.06;100592.66;5285778;28;19920;-72
2021/12/07 12:44:48;;;;;;;;;;;;;;;6.11;76.98;100591.28;5286018;28;19924;-74
2021/12/07 12:47:23;;;;;;;;;;;;;;;6.11;77.75;100583.00;5265188;28;19979;-73
2021/12/07 12:49:55;;;;;;;;;;;;;;;6.12;78.21;100568.13;5285218;28;19927;-76
2021/12/07 12:52:37;;;;;;;;;;;;;;;6.15;78.07;100561.28;5285309;28;20003;-74
2021/12/07 12:55:25;;;;;;;;;;;;;;;6.17;78.19;100550.81;5285619;28;19921;-75
2021/12/07 12:57:57;;;;;;;;;;;;;;;6.20;78.42;100529.06;5285516;28;19917;-73
2021/12/07 13:00:46;;;;;;;;;;;;;;;6.21;77.38;100527.16;5285137;28;19916;-74
2021/12/07 13:03:20;;;;;;;;;;;;;;;6.24;77.78;100515.63;5285375;28;19928;-75
2021/12/07 13:06:00;;;;;;;;;;;;;;;6.26;77.26;100516.16;5285336;28;19928;-74
2021/12/07 13:08:31;;;;;;;;;;;;;;;6.27;77.62;100493.03;5285072;28;20002;-75
2021/12/07 13:11:03;;;;;;;;;;;;;;;6.30;77.68;100482.31;5285425;28;20008;-74
2021/12/07 13:13:36;;;;;;;;;;;;;;;6.35;78.67;100470.47;5284780;28;19990;-75
2021/12/07 13:16:15;;;;;;;;;;;;;;;6.47;79.59;100460.06;5284751;28;19974;-75
2021/12/07 13:18:46;;;;;;;;;;;;;;;6.55;79.41;100463.38;5283775;28;19924;-73
2021/12/07 13:21:18;;;;;;;;;;;;;;;6.59;80.10;100461.72;5284300;28;19947;-74
2021/12/07 13:24:16;;;;;;;;;;;;;;;6.62;78.71;100455.66;5285153;28;20359;-74
2021/12/07 13:26:52;;;;;;;;;;;;;;;6.64;76.93;100453.47;5280285;28;19967;-73
2021/12/07 13:29:25;;;;;;;;;;;;;;;6.60;76.41;100455.13;5284201;28;20007;-71
2021/12/07 13:32:01;;;;;;;;;;;;;;;6.59;77.56;100450.69;5293488;28;19950;-71
2021/12/07 13:34:34;;;;;;;;;;;;;;;6.63;77.36;100446.31;5283033;28;20361;-72
2021/12/07 13:37:11;;;;;;;;;;;;;;;6.69;78.47;100445.19;5283413;28;19967;-73
2021/12/07 13:39:47;;;;;;;;;;;;;;;6.66;76.31;100451.25;5284441;28;19922;-72
2021/12/07 13:42:19;;;;;;;;;;;;;;;6.61;76.52;100438.31;5266650;28;19961;-72
2021/12/07 13:44:56;;;;;;;;;;;;;;;6.58;76.73;100438.84;5284716;28;19932;-72
2021/12/07 13:47:28;;;;;;;;;;;;;;;6.56;77.46;100437.47;5283692;28;19927;-74
2021/12/07 13:50:06;;;;;;;;;;;;;;;6.52;76.21;100429.75;5280863;28;19962;-74
2021/12/07 13:52:39;;;;;;;;;;;;;;;6.47;75.50;100432.50;5278941;28;19925;-75
2021/12/07 13:55:15;;;;;;;;;;;;;;;6.45;75.90;100426.44;5284067;28;20404;-73
2021/12/07 13:57:47;;;;;;;;;;;;;;;6.42;76.55;100415.97;5281005;28;20296;-74
2021/12/07 14:00:23;;;;;;;;;;;;;;;6.39;76.27;100405.50;5284052;28;20024;-74
2021/12/07 14:03:05;;;;;;;;;;;;;;;6.40;77.01;100409.06;5283935;28;19917;-75
2021/12/07 14:05:38;;;;;;;;;;;;;;;6.42;77.15;100401.38;5284377;28;20287;-74
2021/12/07 14:08:11;;;;;;;;;;;;;;;6.39;77.44;100391.72;5283999;28;19921;-74
2021/12/07 14:10:50;;;;;;;;;;;;;;;6.39;77.03;100396.38;5283127;28;19921;-74
2021/12/07 14:13:22;;;;;;;;;;;;;;;6.36;77.43;100383.97;5284068;28;19931;-74
2021/12/07 14:15:54;;;;;;;;;;;;;;;6.31;76.59;100383.97;5283670;28;19944;-74
2021/12/07 14:18:26;;;;;;;;;;;;;;;6.32;76.77;100385.66;5283245;28;19921;-75
2021/12/07 14:20:58;;;;;;;;;;;;;;;6.34;77.46;100377.09;5284432;28;19920;-73
2021/12/07 14:23:29;;;;;;;;;;;;;;;6.35;76.89;100371.31;5282245;28;19963;-73
2021/12/07 14:26:06;;;;;;;;;;;;;;;6.35;76.91;100367.75;5283888;28;19963;-72
2021/12/07 14:28:44;;;;;;;;;;;;;;;6.36;76.98;100372.97;5283389;28;19920;-73
2021/12/07 14:31:23;;;;;;;;;;;;;;;6.38;77.57;100375.47;5283231;28;19975;-75
2021/12/07 14:34:03;;;;;;;;;;;;;;;6.39;77.52;100366.94;5282645;28;19931;-73
2021/12/07 14:36:38;;;;;;;;;;;;;;;6.41;77.18;100366.66;5282342;28;20015;-73
2021/12/07 14:39:10;;;;;;;;;;;;;;;6.41;77.06;100359.19;5284934;28;19967;-72
2021/12/07 14:41:46;;;;;;;;;;;;;;;6.42;76.72;100346.28;5283599;28;19916;-73
2021/12/07 14:44:22;;;;;;;;;;;;;;;6.41;77.50;100339.91;5283751;28;19970;-73
2021/12/07 14:46:55;;;;;;;;;;;;;;;6.39;76.49;100346.81;5281087;28;19968;-71
2021/12/07 14:49:29;;;;;;;;;;;;;;;6.35;77.14;100330.00;5284890;28;19935;-76
2021/12/07 14:52:00;;;;;;;;;;;;;;;6.34;76.39;100330.28;5265441;28;20019;-74
2021/12/07 14:54:32;;;;;;;;;;;;;;;6.33;76.87;100326.69;5265862;28;20372;-73